createdAt,value
2023-04-08T00:01:01.252Z,11.22
2023-04-08T00:03:29.675Z,11.27
2023-04-08T00:06:00.990Z,11.29
2023-04-08T00:08:27.918Z,11.28
2023-04-08T00:10:54.859Z,11.27
2023-04-08T00:13:22.150Z,11.27
2023-04-08T00:15:49.646Z,11.28
2023-04-08T00:18:17.195Z,11.28
2023-04-08T00:20:44.423Z,11.25
2023-04-08T00:23:11.292Z,11.23
2023-04-08T00:25:38.154Z,11.24
2023-04-08T00:28:05.188Z,11.27
2023-04-08T00:30:32.168Z,11.29
2023-04-08T00:32:59.069Z,11.31
2023-04-08T00:35:26.136Z,11.33
2023-04-08T00:37:52.998Z,11.35
2023-04-08T00:40:19.919Z,11.37
2023-04-08T00:42:50.130Z,11.38
2023-04-08T00:45:16.916Z,11.35
2023-04-08T00:47:45.049Z,11.30
2023-04-08T00:50:13.858Z,11.28
2023-04-08T00:52:43.182Z,11.25
2023-04-08T00:55:10.587Z,11.20
2023-04-08T00:57:37.773Z,11.20
2023-04-08T01:00:06.533Z,11.15
2023-04-08T01:02:49.298Z,11.10
2023-04-08T01:05:23.948Z,11.12
2023-04-08T01:07:52.567Z,11.11
2023-04-08T01:10:29.237Z,11.12
2023-04-08T01:13:06.646Z,11.11
2023-04-08T01:15:36.786Z,11.09
2023-04-08T01:18:08.377Z,11.05
2023-04-08T01:20:36.147Z,10.98
2023-04-08T01:23:32.989Z,10.94
2023-04-08T01:25:59.930Z,10.86
2023-04-08T01:28:29.634Z,10.76
2023-04-08T01:30:59.575Z,10.60
2023-04-08T01:33:29.100Z,10.51
2023-04-08T01:35:57.492Z,10.44
2023-04-08T01:38:26.787Z,10.39
2023-04-08T01:40:55.956Z,10.30
2023-04-08T01:43:24.666Z,10.23
2023-04-08T01:45:54.757Z,10.22
2023-04-08T01:48:22.140Z,10.26
2023-04-08T01:50:51.307Z,10.28
2023-04-08T01:53:18.558Z,10.25
2023-04-08T01:55:46.152Z,10.21
2023-04-08T01:58:19.311Z,10.16
2023-04-08T02:00:47.303Z,10.16
2023-04-08T02:03:19.252Z,10.22
2023-04-08T02:05:46.701Z,10.31
2023-04-08T02:08:13.617Z,10.38
2023-04-08T02:10:40.816Z,10.45
2023-04-08T02:13:09.109Z,10.50
2023-04-08T02:15:41.484Z,10.56
2023-04-08T02:18:14.102Z,10.57
2023-04-08T02:20:53.920Z,10.58
2023-04-08T02:23:21.722Z,10.51
2023-04-08T02:25:49.693Z,10.46
2023-04-08T02:28:19.292Z,10.44
2023-04-08T02:30:50.963Z,10.39
2023-04-08T02:33:22.836Z,10.36
2023-04-08T02:35:55.978Z,10.33
2023-04-08T02:38:24.473Z,10.31
2023-04-08T02:40:51.693Z,10.31
2023-04-08T02:43:18.532Z,10.31
2023-04-08T02:45:46.128Z,10.33
2023-04-08T02:48:15.342Z,10.38
2023-04-08T02:50:42.043Z,10.42
2023-04-08T02:53:09.722Z,10.46
2023-04-08T02:55:38.060Z,10.45
2023-04-08T02:58:12.837Z,10.46
2023-04-08T03:00:39.846Z,10.49
2023-04-08T03:03:09.882Z,10.51
2023-04-08T03:05:39.790Z,10.54
2023-04-08T03:08:06.953Z,10.54
2023-04-08T03:10:33.767Z,10.57
2023-04-08T03:13:00.694Z,10.62
2023-04-08T03:15:27.522Z,10.66
2023-04-08T03:17:55.580Z,10.67
2023-04-08T03:20:25.538Z,10.67
2023-04-08T03:22:52.589Z,10.70
2023-04-08T03:25:19.363Z,10.75
2023-04-08T03:27:46.504Z,10.78
2023-04-08T03:30:13.582Z,10.79
2023-04-08T03:32:40.737Z,10.79
2023-04-08T03:35:07.876Z,10.79
2023-04-08T03:37:34.686Z,10.77
2023-04-08T03:40:01.649Z,10.76
2023-04-08T03:42:31.485Z,10.75
2023-04-08T03:44:58.709Z,10.77
2023-04-08T03:47:25.610Z,10.78
2023-04-08T03:49:55.540Z,10.76
2023-04-08T03:52:22.557Z,10.75
2023-04-08T03:54:52.379Z,10.73
2023-04-08T03:57:19.331Z,10.71
2023-04-08T03:59:46.093Z,10.65
2023-04-08T04:02:13.091Z,10.57
2023-04-08T04:04:43.830Z,10.50
2023-04-08T04:07:10.848Z,10.49
2023-04-08T04:09:37.648Z,10.46
2023-04-08T04:12:04.494Z,10.43
2023-04-08T04:14:31.449Z,10.39
2023-04-08T04:16:58.492Z,10.35
2023-04-08T04:19:25.618Z,10.36
2023-04-08T04:21:52.443Z,10.35
2023-04-08T04:24:19.186Z,10.34
2023-04-08T22:50:57.841Z,12.49
2023-04-08T22:53:27.682Z,12.46
2023-04-08T22:55:57.394Z,12.49
2023-04-08T22:58:41.006Z,12.50
2023-04-08T23:01:18.692Z,12.53
2023-04-08T23:03:57.545Z,12.51
2023-04-08T23:06:45.575Z,12.53
2023-04-08T23:09:26.789Z,12.48
2023-04-08T23:12:05.138Z,12.47
2023-04-08T23:14:41.566Z,12.47
2023-04-08T23:17:09.136Z,12.44
2023-04-08T23:19:37.845Z,12.36
2023-04-08T23:22:06.679Z,12.33
2023-04-08T23:24:34.962Z,12.34
2023-04-08T23:27:06.200Z,12.35
2023-04-08T23:29:36.154Z,12.35
2023-04-08T23:32:14.881Z,12.35
2023-04-08T23:34:54.029Z,12.36
2023-04-08T23:37:36.825Z,12.37
2023-04-08T23:40:13.017Z,12.35
2023-04-08T23:42:41.117Z,12.28
2023-04-08T23:45:13.561Z,12.23
2023-04-08T23:47:49.385Z,12.16
2023-04-08T23:50:46.310Z,12.11
2023-04-08T23:53:16.069Z,12.14
2023-04-08T23:55:45.309Z,12.15
2023-04-08T23:58:16.833Z,12.12
